Time;durP1;ratioP1;P1;durP2;ratioP2;P2;SDS_P1;SDS_P2;PMS_P1;PMS_P2;Temp;Humidity;BMP_temperature;BMP_pressure;BME280_temperature;BME280_humidity;BME280_pressure;Samples;Min_cycle;Max_cycle;Signal;HPM_P1;HPM_P2
2023/04/02 00:00:02;;;;;;;10.07;9.07;;;11.10;99.90;;;;;;5048405;28;20302;-32
2023/04/02 00:02:31;;;;;;;11.03;9.93;;;11.10;99.90;;;;;;5048443;28;20224;-32
2023/04/02 00:05:18;;;;;;;10.43;9.37;;;11.00;99.90;;;;;;5030761;28;20188;-32
2023/04/02 00:07:50;;;;;;;8.47;7.57;;;11.00;99.90;;;;;;5048464;28;20192;-34
2023/04/02 00:10:27;;;;;;;8.80;8.00;;;10.90;99.90;;;;;;5048144;28;20200;-33
2023/04/02 00:13:11;;;;;;;8.63;7.83;;;10.80;99.90;;;;;;5046842;28;20318;-33
2023/04/02 00:15:41;;;;;;;9.33;8.27;;;10.90;99.90;;;;;;5046683;28;20204;-32
2023/04/02 00:18:15;;;;;;;9.87;8.10;;;10.90;99.90;;;;;;5048093;28;20231;-33
2023/04/02 00:20:51;;;;;;;7.53;6.80;;;10.80;99.90;;;;;;5046570;28;20196;-34
2023/04/02 00:23:21;;;;;;;7.90;6.57;;;10.70;99.90;;;;;;5048055;28;20776;-33
2023/04/02 00:25:49;;;;;;;6.80;6.13;;;10.70;99.90;;;;;;5048491;28;20220;-33
2023/04/02 00:28:19;;;;;;;7.07;6.37;;;10.70;99.90;;;;;;5046945;28;20262;-34
2023/04/02 00:30:57;;;;;;;6.97;6.27;;;10.60;99.90;;;;;;5047072;28;20211;-33
2023/04/02 00:33:30;;;;;;;7.33;6.63;;;10.60;99.90;;;;;;5048244;28;20204;-33
2023/04/02 00:36:05;;;;;;;8.53;6.83;;;10.60;99.90;;;;;;5046587;28;20896;-33
2023/04/02 00:38:37;;;;;;;7.00;6.30;;;10.60;99.90;;;;;;5030522;28;20543;-33
2023/04/02 00:41:06;;;;;;;7.13;6.43;;;10.50;99.90;;;;;;5047592;28;20208;-33
2023/04/02 00:43:37;;;;;;;7.70;6.90;;;10.50;99.90;;;;;;5046642;28;20224;-33
2023/04/02 00:46:13;;;;;;;7.73;6.93;;;10.50;99.90;;;;;;5047938;28;20218;-33
2023/04/02 00:48:44;;;;;;;10.33;7.53;;;10.50;99.90;;;;;;5047630;28;20192;-33
2023/04/02 00:51:29;;;;;;;7.37;6.70;;;10.50;99.90;;;;;;5046007;28;20204;-33
2023/04/02 00:54:02;;;;;;;7.97;7.17;;;10.50;99.90;;;;;;5046390;28;20558;-33
2023/04/02 00:56:54;;;;;;;7.87;7.17;;;10.50;99.90;;;;;;5013205;28;20232;-33
2023/04/02 00:59:41;;;;;;;8.27;7.47;;;10.50;99.90;;;;;;5043861;28;20200;-33
2023/04/02 01:02:16;;;;;;;11.40;8.43;;;10.40;99.90;;;;;;5030618;28;20205;-32
2023/04/02 01:05:00;;;;;;;9.30;8.40;;;10.40;99.90;;;;;;5038409;28;20207;-33
2023/04/02 01:07:43;;;;;;;9.53;8.53;;;10.40;99.90;;;;;;5034611;28;20275;-33
2023/04/02 01:11:07;;;;;;;9.87;8.87;;;10.40;99.90;;;;;;5032482;28;20613;-33
2023/04/02 01:14:01;;;;;;;9.73;8.07;;;10.40;99.90;;;;;;5027722;28;20235;-32
2023/04/02 01:16:35;;;;;;;10.17;9.23;;;10.40;99.90;;;;;;4994961;28;20212;-33
2023/04/02 01:19:42;;;;;;;10.17;9.17;;;10.40;99.90;;;;;;5035171;28;20656;-33
2023/04/02 01:22:18;;;;;;;10.87;9.77;;;10.30;99.90;;;;;;5046942;28;20781;-33
2023/04/02 01:24:46;;;;;;;10.73;9.63;;;10.30;99.90;;;;;;5047081;28;20200;-32
2023/04/02 01:27:24;;;;;;;11.43;10.23;;;10.30;99.90;;;;;;5029031;28;20769;-33
2023/04/02 01:30:02;;;;;;;11.23;10.03;;;10.20;99.90;;;;;;5046745;28;20220;-33
2023/04/02 01:32:30;;;;;;;11.00;9.93;;;10.30;99.90;;;;;;5045147;28;20399;-33
2023/04/02 01:34:57;;;;;;;11.53;9.97;;;10.30;99.90;;;;;;5044847;28;20198;-33
2023/04/02 01:38:13;;;;;;;10.03;8.97;;;10.30;99.90;;;;;;5044982;28;20196;-33
2023/04/02 01:41:00;;;;;;;13.77;11.67;;;10.40;99.90;;;;;;5046135;28;20663;-33
2023/04/02 01:43:40;;;;;;;13.83;12.03;;;10.30;99.90;;;;;;5045031;28;20745;-33
2023/04/02 01:46:29;;;;;;;12.67;11.33;;;10.30;99.90;;;;;;5046384;28;20315;-32
2023/04/02 01:48:58;;;;;;;12.53;11.23;;;10.20;99.90;;;;;;5046983;28;20289;-34
2023/04/02 01:51:38;;;;;;;13.07;11.77;;;10.20;99.90;;;;;;5046043;28;20202;-33
2023/04/02 01:54:06;;;;;;;13.17;11.77;;;10.20;99.90;;;;;;5045051;28;20308;-33
2023/04/02 01:56:34;;;;;;;13.50;11.80;;;10.10;99.90;;;;;;5028485;28;20616;-32
2023/04/02 01:59:05;;;;;;;12.07;10.87;;;10.10;99.90;;;;;;5046220;28;20686;-34
2023/04/02 02:02:01;;;;;;;11.83;10.57;;;10.10;99.90;;;;;;5046433;28;20212;-33
2023/04/02 02:04:32;;;;;;;14.00;10.83;;;10.10;99.90;;;;;;5044894;28;20204;-33
2023/04/02 02:07:01;;;;;;;11.30;10.20;;;10.00;99.90;;;;;;5045164;28;20611;-33
2023/04/02 02:09:33;;;;;;;10.30;9.20;;;10.00;99.90;;;;;;5045838;28;20230;-32
2023/04/02 02:12:04;;;;;;;10.47;9.47;;;10.00;99.90;;;;;;5044737;28;20208;-33
2023/04/02 02:14:32;;;;;;;10.80;9.70;;;10.00;99.90;;;;;;5046118;28;20495;-33
2023/04/02 02:17:03;;;;;;;11.03;9.93;;;10.00;99.90;;;;;;5045294;28;20224;-32
2023/04/02 02:19:45;;;;;;;11.37;10.17;;;10.00;99.90;;;;;;5046557;28;20226;-32
2023/04/02 02:22:19;;;;;;;12.10;10.80;;;9.90;99.90;;;;;;5046102;28;20987;-33
2023/04/02 02:24:46;;;;;;;12.13;10.30;;;9.90;99.90;;;;;;5046189;28;20215;-32
2023/04/02 02:27:22;;;;;;;11.40;10.20;;;9.80;99.90;;;;;;5044786;28;20706;-33
2023/04/02 02:29:59;;;;;;;13.57;10.73;;;9.80;99.90;;;;;;5045810;28;20192;-33
2023/04/02 02:32:33;;;;;;;12.13;10.07;;;9.70;99.90;;;;;;5046419;28;20238;-32
2023/04/02 02:35:10;;;;;;;11.13;10.03;;;9.70;99.90;;;;;;5044784;28;20490;-32
2023/04/02 02:37:47;;;;;;;10.90;9.80;;;9.70;99.90;;;;;;5044390;28;20299;-33
2023/04/02 02:40:22;;;;;;;10.70;9.60;;;9.70;99.90;;;;;;5046083;28;20661;-32
2023/04/02 02:43:02;;;;;;;11.87;10.10;;;9.60;99.90;;;;;;5046089;28;20690;-32
2023/04/02 02:45:36;;;;;;;9.87;8.87;;;9.50;99.90;;;;;;5046302;28;20282;-32
2023/04/02 02:48:10;;;;;;;9.90;9.00;;;9.50;99.90;;;;;;5044863;28;20242;-33
2023/04/02 02:50:41;;;;;;;10.77;9.67;;;9.50;99.90;;;;;;5044585;28;20678;-33
2023/04/02 02:53:25;;;;;;;10.60;9.50;;;9.50;99.90;;;;;;5046232;28;20303;-32
2023/04/02 02:55:57;;;;;;;10.33;9.33;;;9.50;99.90;;;;;;5043814;28;20300;-32
2023/04/02 02:58:32;;;;;;;10.67;9.57;;;9.50;99.90;;;;;;5044472;28;20303;-33
2023/04/02 03:01:02;;;;;;;10.63;9.53;;;9.40;99.90;;;;;;5045600;28;20200;-33
2023/04/02 03:03:33;;;;;;;11.87;9.60;;;9.40;99.90;;;;;;5049342;28;20239;-34
2023/04/02 03:06:06;;;;;;;11.37;10.17;;;9.40;99.90;;;;;;5049267;28;20721;-34
2023/04/02 03:09:01;;;;;;;11.53;10.33;;;9.40;99.90;;;;;;5049559;28;20204;-33
2023/04/02 03:11:49;;;;;;;11.63;10.33;;;9.40;99.90;;;;;;5049480;28;20197;-32
2023/04/02 03:14:19;;;;;;;12.27;10.43;;;9.40;99.90;;;;;;5048121;28;20645;-33
2023/04/02 03:16:52;;;;;;;11.83;10.50;;;9.30;99.90;;;;;;5047732;28;20212;-33
2023/04/02 03:19:29;;;;;;;12.77;11.47;;;9.40;99.90;;;;;;5049387;28;20227;-32
2023/04/02 03:22:23;;;;;;;14.37;12.87;;;9.30;99.90;;;;;;5049634;28;20855;-33
2023/04/02 03:25:02;;;;;;;16.53;14.80;;;9.40;99.90;;;;;;5047901;28;20266;-33
2023/04/02 03:27:37;;;;;;;17.00;15.20;;;9.20;99.90;;;;;;5049203;28;20767;-32
2023/04/02 03:30:22;;;;;;;16.77;14.80;;;9.30;99.90;;;;;;5049215;28;20257;-33
2023/04/02 03:32:56;;;;;;;18.90;15.67;;;9.20;99.90;;;;;;5049451;28;20565;-33
2023/04/02 03:35:34;;;;;;;17.87;15.90;;;9.20;99.90;;;;;;5049739;28;20738;-32
2023/04/02 03:38:11;;;;;;;18.07;16.20;;;9.10;99.90;;;;;;5048901;28;20311;-33
2023/04/02 03:40:42;;;;;;;17.80;15.63;;;9.10;99.90;;;;;;5048964;28;20212;-33
2023/04/02 03:43:23;;;;;;;19.00;16.57;;;9.00;99.90;;;;;;5048830;28;20247;-33
2023/04/02 03:45:59;;;;;;;18.43;16.00;;;9.00;99.90;;;;;;5049177;28;20196;-32
2023/04/02 03:48:50;;;;;;;17.37;15.50;;;9.00;99.90;;;;;;5047344;28;20287;-33
2023/04/02 03:51:25;;;;;;;20.10;15.90;;;9.00;99.90;;;;;;5047079;28;20547;-33
2023/04/02 03:53:55;;;;;;;16.60;14.90;;;9.00;99.90;;;;;;5048183;28;20196;-33
2023/04/02 03:56:38;;;;;;;17.57;15.53;;;8.90;99.90;;;;;;5046867;28;20240;-32
2023/04/02 03:59:47;;;;;;;16.90;15.10;;;8.90;99.90;;;;;;5046857;28;20215;-32
2023/04/02 04:02:25;;;;;;;16.37;14.03;;;8.90;99.90;;;;;;5046888;28;20202;-33
2023/04/02 04:04:56;;;;;;;15.40;13.27;;;8.80;99.90;;;;;;5048683;28;20195;-33
2023/04/02 04:07:43;;;;;;;14.67;13.07;;;8.90;99.90;;;;;;5047137;28;20208;-33
2023/04/02 04:10:18;;;;;;;16.07;13.90;;;8.90;99.90;;;;;;5046772;28;20322;-33
2023/04/02 04:12:49;;;;;;;14.93;12.90;;;8.80;99.90;;;;;;5047884;28;20200;-33
2023/04/02 04:15:46;;;;;;;16.00;13.13;;;8.80;99.90;;;;;;5048185;28;20299;-33
2023/04/02 04:18:20;;;;;;;15.50;13.90;;;8.70;99.90;;;;;;5047714;28;20224;-33
2023/04/02 04:20:58;;;;;;;14.07;12.37;;;8.70;99.90;;;;;;5046765;28;20640;-33
2023/04/02 04:23:37;;;;;;;15.43;13.53;;;8.80;99.90;;;;;;5048003;28;20212;-33
2023/04/02 04:26:10;;;;;;;15.87;13.60;;;8.70;99.90;;;;;;5046219;28;20315;-33
2023/04/02 04:29:11;;;;;;;17.63;13.87;;;8.70;99.90;;;;;;5047905;28;20282;-33
2023/04/02 04:31:45;;;;;;;15.20;12.83;;;8.70;99.90;;;;;;5048546;28;20242;-33
2023/04/02 04:34:25;;;;;;;16.60;14.40;;;8.70;99.90;;;;;;5046293;28;20204;-33
2023/04/02 04:37:01;;;;;;;13.77;12.37;;;8.70;99.90;;;;;;5046326;28;20236;-33
2023/04/02 04:39:47;;;;;;;17.20;14.47;;;8.70;99.90;;;;;;5046288;28;20633;-33
2023/04/02 04:42:30;;;;;;;16.80;14.70;;;8.80;99.90;;;;;;5047768;28;20299;-33
2023/04/02 04:45:08;;;;;;;18.70;15.33;;;8.70;99.90;;;;;;5046831;28;20558;-33
2023/04/02 04:47:42;;;;;;;16.83;15.03;;;8.70;99.90;;;;;;5047627;28;20210;-33
2023/04/02 04:50:22;;;;;;;16.43;13.73;;;8.70;99.90;;;;;;5047454;28;20207;-34
2023/04/02 04:52:52;;;;;;;16.53;14.23;;;8.70;99.90;;;;;;5047452;28;20305;-34
2023/04/02 04:55:35;;;;;;;16.87;14.43;;;8.80;99.90;;;;;;5046017;28;20369;-33
2023/04/02 04:58:21;;;;;;;15.33;13.67;;;8.80;99.90;;;;;;5046069;28;20628;-33
2023/04/02 05:01:02;;;;;;;17.93;14.73;;;8.70;99.90;;;;;;5046299;28;20282;-36
2023/04/02 05:03:32;;;;;;;14.70;13.20;;;8.60;99.90;;;;;;5047679;28;20313;-33
2023/04/02 05:06:11;;;;;;;15.37;12.30;;;8.70;99.90;;;;;;5047198;28;20192;-33
2023/04/02 05:08:46;;;;;;;16.20;12.60;;;8.70;99.90;;;;;;5047120;28;20196;-34
2023/04/02 05:11:27;;;;;;;14.23;11.67;;;8.70;99.90;;;;;;5047169;28;20230;-33
2023/04/02 05:14:04;;;;;;;13.73;12.00;;;8.70;99.90;;;;;;5047105;28;20235;-33
2023/04/02 05:16:49;;;;;;;12.70;11.27;;;8.60;99.90;;;;;;5045502;28;20262;-33
2023/04/02 05:19:36;;;;;;;15.90;12.73;;;8.60;99.90;;;;;;5047165;28;20196;-33
2023/04/02 05:22:27;;;;;;;18.30;14.73;;;8.60;99.90;;;;;;5045422;28;20231;-33
2023/04/02 05:25:18;;;;;;;17.67;14.80;;;8.60;99.90;;;;;;5044330;28;20224;-33
2023/04/02 05:28:03;;;;;;;18.47;14.63;;;8.60;99.90;;;;;;5046963;28;20288;-33
2023/04/02 05:30:38;;;;;;;15.63;13.63;;;8.60;99.90;;;;;;5047284;28;20673;-34
2023/04/02 05:33:18;;;;;;;15.03;13.20;;;8.50;99.90;;;;;;5047215;28;20295;-33
2023/04/02 05:35:50;;;;;;;16.00;13.07;;;8.50;99.90;;;;;;5045877;28;20266;-33
2023/04/02 05:38:21;;;;;;;14.83;11.63;;;8.50;99.90;;;;;;5046512;28;20220;-33
2023/04/02 05:41:04;;;;;;;14.43;12.20;;;8.50;99.90;;;;;;5046799;28;20262;-33
2023/04/02 05:43:35;;;;;;;13.07;11.77;;;8.60;99.90;;;;;;5045273;28;20786;-33
2023/04/02 05:46:20;;;;;;;15.17;12.60;;;8.50;99.90;;;;;;5045417;28;20243;-33
2023/04/02 05:48:57;;;;;;;15.03;12.87;;;8.50;99.90;;;;;;5046392;28;20292;-33
2023/04/02 05:51:47;;;;;;;13.37;11.93;;;8.40;99.90;;;;;;5045337;28;20550;-33
2023/04/02 05:54:42;;;;;;;14.30;11.77;;;8.40;99.90;;;;;;5046534;28;20212;-33
2023/04/02 05:57:19;;;;;;;13.77;12.27;;;8.40;99.90;;;;;;5042318;28;20617;-34
2023/04/02 06:00:02;;;;;;;13.17;10.70;;;8.30;99.90;;;;;;5045138;28;20196;-33
2023/04/02 06:02:55;;;;;;;13.30;11.73;;;8.30;99.90;;;;;;5045420;28;20581;-33
2023/04/02 06:05:27;;;;;;;14.77;11.63;;;8.30;99.90;;;;;;5046315;28;20200;-33
2023/04/02 06:08:12;;;;;;;14.80;12.13;;;8.30;99.90;;;;;;5046570;28;20537;-33
2023/04/02 06:10:55;;;;;;;13.10;11.37;;;8.20;99.90;;;;;;5046795;28;20239;-33
2023/04/02 06:13:26;;;;;;;14.20;11.00;;;8.20;99.90;;;;;;5046616;28;20258;-33
2023/04/02 06:15:56;;;;;;;15.67;11.17;;;8.20;99.90;;;;;;5046151;28;20309;-34
2023/04/02 06:18:28;;;;;;;12.47;11.17;;;8.20;99.90;;;;;;5046207;28;20204;-33
2023/04/02 06:20:55;;;;;;;11.67;10.10;;;8.10;99.90;;;;;;5046169;28;20212;-33
2023/04/02 06:23:40;;;;;;;13.10;10.77;;;8.20;99.90;;;;;;5045931;28;20223;-33
2023/04/02 06:26:46;;;;;;;13.40;11.57;;;8.20;99.90;;;;;;5046485;28;20195;-33
2023/04/02 06:29:38;;;;;;;15.57;12.20;;;8.20;99.90;;;;;;5045434;28;20223;-33
2023/04/02 06:32:13;;;;;;;13.90;11.47;;;8.10;99.90;;;;;;5044577;28;20223;-33
2023/04/02 06:34:41;;;;;;;16.73;12.10;;;8.10;99.90;;;;;;5046343;28;20570;-32
2023/04/02 06:37:37;;;;;;;14.43;11.43;;;8.10;99.90;;;;;;5047764;28;20251;-34
2023/04/02 06:40:19;;;;;;;16.80;12.10;;;8.10;99.90;;;;;;5048073;28;20214;-33
2023/04/02 06:42:48;;;;;;;15.70;12.50;;;8.10;99.90;;;;;;5049908;28;20250;-33
2023/04/02 06:45:24;;;;;;;17.60;12.87;;;8.10;99.90;;;;;;5049904;28;20964;-33
2023/04/02 06:47:54;;;;;;;17.93;14.23;;;8.10;99.90;;;;;;5050066;28;20302;-33
2023/04/02 06:50:40;;;;;;;14.67;13.07;;;8.00;99.90;;;;;;5048361;28;20199;-33
2023/04/02 06:53:24;;;;;;;18.67;14.23;;;8.00;99.90;;;;;;5050289;28;20282;-33
2023/04/02 06:56:03;;;;;;;18.73;14.87;;;8.00;99.90;;;;;;5049771;28;20240;-33
2023/04/02 06:58:30;;;;;;;17.10;14.43;;;8.10;99.90;;;;;;5048257;28;20195;-33
2023/04/02 07:01:00;;;;;;;19.93;15.13;;;8.10;99.90;;;;;;5048302;28;20690;-33
2023/04/02 07:03:30;;;;;;;20.87;15.17;;;8.10;99.90;;;;;;5049890;28;20754;-33
2023/04/02 07:06:00;;;;;;;20.50;15.43;;;8.10;99.90;;;;;;5031767;28;20204;-33
2023/04/02 07:08:32;;;;;;;21.37;14.73;;;8.10;99.90;;;;;;5049660;28;20250;-33
2023/04/02 07:11:02;;;;;;;20.53;15.20;;;8.10;99.90;;;;;;5049518;28;20569;-33
2023/04/02 07:13:29;;;;;;;17.50;14.20;;;8.10;99.90;;;;;;5050000;28;20655;-33
2023/04/02 07:15:58;;;;;;;19.37;15.03;;;8.20;99.90;;;;;;5049008;28;20671;-34
2023/04/02 07:18:34;;;;;;;19.17;14.67;;;8.20;99.90;;;;;;5047655;28;20200;-33
2023/04/02 07:21:01;;;;;;;23.83;16.73;;;8.20;99.90;;;;;;5048330;28;20727;-33
2023/04/02 07:23:30;;;;;;;21.43;15.47;;;8.10;99.90;;;;;;5049254;28;20634;-33
2023/04/02 07:25:58;;;;;;;24.97;15.37;;;8.10;99.90;;;;;;5049258;28;20203;-33
2023/04/02 07:28:25;;;;;;;21.77;14.13;;;8.00;99.90;;;;;;5047730;28;20288;-33
2023/04/02 07:30:53;;;;;;;19.50;13.83;;;8.00;99.90;;;;;;5049143;28;20390;-33
2023/04/02 07:33:23;;;;;;;15.20;12.83;;;8.00;99.90;;;;;;5047351;28;20881;-33
2023/04/02 07:35:51;;;;;;;14.90;12.57;;;7.80;99.90;;;;;;5047522;28;20188;-33
2023/04/02 07:38:18;;;;;;;14.63;11.70;;;7.80;99.90;;;;;;5047557;28;20196;-33
2023/04/02 07:40:46;;;;;;;13.40;11.47;;;7.80;99.90;;;;;;5047394;28;20235;-32
2023/04/02 07:43:16;;;;;;;13.47;10.63;;;7.80;99.90;;;;;;5047733;28;20254;-33
2023/04/02 07:45:43;;;;;;;12.27;10.27;;;7.80;99.90;;;;;;5047350;28;20212;-33
2023/04/02 07:48:12;;;;;;;11.27;9.47;;;7.80;99.90;;;;;;5047747;28;20291;-33
2023/04/02 07:50:44;;;;;;;11.27;8.50;;;7.80;99.90;;;;;;5047438;28;20224;-33
2023/04/02 07:53:26;;;;;;;10.17;8.97;;;7.90;99.90;;;;;;5047187;28;20209;-33
2023/04/02 07:55:53;;;;;;;10.80;8.77;;;7.90;99.90;;;;;;5047247;28;20275;-33
2023/04/02 07:58:23;;;;;;;11.17;9.83;;;7.90;99.90;;;;;;5047521;28;20621;-33
2023/04/02 08:00:50;;;;;;;11.63;8.97;;;7.80;99.90;;;;;;5047223;28;20196;-33
2023/04/02 08:03:23;;;;;;;11.27;9.00;;;7.80;99.90;;;;;;5046959;28;20287;-33
2023/04/02 08:05:58;;;;;;;12.23;8.93;;;7.80;99.90;;;;;;5048157;28;20208;-33
2023/04/02 08:08:25;;;;;;;10.70;9.00;;;7.70;99.90;;;;;;5048728;28;20203;-33
2023/04/02 08:10:54;;;;;;;11.13;8.03;;;7.80;99.90;;;;;;5047909;28;20683;-33
2023/04/02 08:13:22;;;;;;;13.70;8.90;;;7.80;99.90;;;;;;5048159;28;20661;-33
2023/04/02 08:15:49;;;;;;;10.90;8.10;;;7.70;99.90;;;;;;5048451;28;20683;-32
2023/04/02 08:18:24;;;;;;;11.80;8.80;;;7.70;99.90;;;;;;5048395;28;20215;-33
2023/04/02 08:20:54;;;;;;;12.63;8.63;;;7.60;99.90;;;;;;5046697;28;20207;-33
2023/04/02 08:23:22;;;;;;;10.63;7.87;;;7.60;99.90;;;;;;5048213;28;20219;-32
2023/04/02 08:25:49;;;;;;;11.27;8.20;;;7.60;99.90;;;;;;5047964;28;20303;-34
2023/04/02 08:28:17;;;;;;;12.80;9.63;;;7.60;99.90;;;;;;5047801;28;20565;-35
2023/04/02 08:30:47;;;;;;;11.63;9.47;;;7.60;99.90;;;;;;5047838;28;20204;-35
2023/04/02 08:33:18;;;;;;;11.70;9.10;;;7.60;99.90;;;;;;5030112;28;20619;-35
2023/04/02 08:35:47;;;;;;;11.97;9.40;;;7.60;99.90;;;;;;5046168;28;20670;-35
2023/04/02 08:38:16;;;;;;;13.37;9.87;;;7.60;99.90;;;;;;5047729;28;20210;-35
2023/04/02 08:40:57;;;;;;;11.57;9.43;;;7.60;99.90;;;;;;5048076;28;20722;-35
2023/04/02 08:43:39;;;;;;;12.50;9.80;;;7.60;99.90;;;;;;5047796;28;20196;-35
2023/04/02 08:46:31;;;;;;;13.03;10.10;;;7.60;99.90;;;;;;5047706;28;20262;-35
2023/04/02 08:49:10;;;;;;;13.23;10.73;;;7.60;99.90;;;;;;5048173;28;20216;-35
2023/04/02 08:51:37;;;;;;;16.23;11.67;;;7.60;99.90;;;;;;5047679;28;20234;-35
2023/04/02 08:54:10;;;;;;;17.50;11.97;;;7.70;99.90;;;;;;5046055;28;20210;-35
2023/04/02 08:56:42;;;;;;;16.73;11.67;;;7.70;99.90;;;;;;5045838;28;20240;-35
2023/04/02 08:59:37;;;;;;;16.13;12.13;;;7.70;99.90;;;;;;5047048;28;20295;-35
2023/04/02 09:02:27;;;;;;;15.03;12.27;;;7.80;99.90;;;;;;5047099;28;20250;-35
2023/04/02 09:05:02;;;;;;;16.07;11.63;;;7.80;99.90;;;;;;5047781;28;20671;-35
2023/04/02 09:07:32;;;;;;;14.17;11.80;;;7.80;99.90;;;;;;5045688;28;20675;-35
2023/04/02 09:10:01;;;;;;;14.77;12.33;;;7.80;99.90;;;;;;5047616;28;20220;-35
2023/04/02 09:12:31;;;;;;;14.53;11.90;;;7.80;99.90;;;;;;5045814;28;20220;-35
2023/04/02 09:15:23;;;;;;;15.23;11.23;;;7.80;99.90;;;;;;5047359;28;20207;-35
2023/04/02 09:18:14;;;;;;;14.90;10.47;;;7.80;99.90;;;;;;5045353;28;20215;-35
2023/04/02 09:20:44;;;;;;;14.87;11.00;;;7.80;99.90;;;;;;5045723;28;20207;-34
2023/04/02 09:23:18;;;;;;;12.30;10.23;;;7.70;99.90;;;;;;5046982;28;20631;-35
2023/04/02 09:25:53;;;;;;;13.77;10.43;;;7.70;99.90;;;;;;5045262;28;20229;-35
2023/04/02 09:28:32;;;;;;;11.60;9.67;;;7.60;99.90;;;;;;5047271;28;20592;-35
2023/04/02 09:31:23;;;;;;;10.73;9.20;;;7.60;99.90;;;;;;5045392;28;20223;-35
2023/04/02 09:33:53;;;;;;;15.20;9.23;;;7.50;99.90;;;;;;5045205;28;20811;-35
2023/04/02 09:36:38;;;;;;;10.10;8.60;;;7.40;99.90;;;;;;5045769;28;20192;-35
2023/04/02 09:39:25;;;;;;;15.50;9.03;;;7.40;99.90;;;;;;5029674;28;20283;-34
2023/04/02 09:41:55;;;;;;;12.57;8.57;;;7.50;99.90;;;;;;5045030;28;20216;-35
2023/04/02 09:44:32;;;;;;;9.73;8.40;;;7.50;99.90;;;;;;5046851;28;20319;-35
2023/04/02 09:47:04;;;;;;;12.03;8.37;;;7.50;99.90;;;;;;5044805;28;20741;-35
2023/04/02 09:49:35;;;;;;;12.33;8.43;;;7.50;99.90;;;;;;5047063;28;20200;-35
2023/04/02 09:52:40;;;;;;;11.47;7.33;;;7.50;99.90;;;;;;5044999;28;20200;-33
2023/04/02 09:55:33;;;;;;;12.00;8.30;;;7.50;99.90;;;;;;5043411;28;20267;-32
2023/04/02 09:58:27;;;;;;;11.07;7.07;;;7.50;99.90;;;;;;5045696;28;20695;-32
2023/04/02 10:00:54;;;;;;;10.57;8.00;;;7.60;99.90;;;;;;5046342;28;20639;-32
2023/04/02 10:03:31;;;;;;;10.83;7.53;;;7.60;99.90;;;;;;5045322;28;20213;-32
2023/04/02 10:06:15;;;;;;;10.00;7.20;;;7.60;99.90;;;;;;5028680;28;20220;-32
2023/04/02 10:08:46;;;;;;;9.30;7.37;;;7.60;99.90;;;;;;5046248;28;20204;-31
2023/04/02 10:11:21;;;;;;;10.87;7.00;;;7.60;99.90;;;;;;5045697;28;20538;-32
2023/04/02 10:14:19;;;;;;;8.33;7.30;;;7.70;99.90;;;;;;5045134;28;20909;-32
2023/04/02 10:16:54;;;;;;;11.97;7.67;;;7.70;99.90;;;;;;5045700;28;20574;-32
2023/04/02 10:19:35;;;;;;;11.17;6.80;;;7.60;99.90;;;;;;5046114;28;20200;-32
2023/04/02 10:22:11;;;;;;;11.90;6.80;;;7.60;99.90;;;;;;5045703;28;20302;-32
2023/04/02 10:24:39;;;;;;;9.43;6.27;;;7.60;99.90;;;;;;5045986;28;20239;-33
2023/04/02 10:27:16;;;;;;;10.60;6.70;;;7.70;99.90;;;;;;5046019;28;20680;-32
2023/04/02 10:29:43;;;;;;;8.73;6.40;;;7.70;99.90;;;;;;5046356;28;20262;-32
2023/04/02 10:32:28;;;;;;;12.57;6.50;;;7.70;99.90;;;;;;5044181;28;20196;-32
2023/04/02 10:35:26;;;;;;;11.93;6.13;;;7.80;99.90;;;;;;5046205;28;20208;-33
2023/04/02 10:38:14;;;;;;;10.43;6.17;;;7.80;99.90;;;;;;5044676;28;20569;-32
2023/04/02 10:40:47;;;;;;;9.93;6.73;;;7.80;99.90;;;;;;5044879;28;20235;-33
2023/04/02 10:43:39;;;;;;;10.67;5.90;;;7.90;99.90;;;;;;5045111;28;20214;-32
2023/04/02 10:46:36;;;;;;;13.70;5.80;;;7.90;99.90;;;;;;5044459;28;20305;-32
2023/04/02 10:49:26;;;;;;;9.63;6.00;;;7.90;99.90;;;;;;5043072;28;20258;-33
2023/04/02 10:51:56;;;;;;;10.03;5.50;;;7.80;99.90;;;;;;5045947;28;20722;-33
2023/04/02 10:54:47;;;;;;;9.53;6.00;;;7.80;99.90;;;;;;5045827;28;20725;-33
2023/04/02 10:57:39;;;;;;;9.43;5.53;;;7.80;99.90;;;;;;5045273;28;20207;-33
2023/04/02 11:00:17;;;;;;;8.97;5.47;;;7.80;99.90;;;;;;5046162;28;20204;-33
2023/04/02 11:03:03;;;;;;;8.20;5.23;;;7.80;99.90;;;;;;5044384;28;20208;-33
2023/04/02 11:05:49;;;;;;;7.57;4.97;;;7.80;99.90;;;;;;5045548;28;20220;-32
2023/04/02 11:08:50;;;;;;;7.90;4.60;;;7.90;99.90;;;;;;5044194;28;20762;-33
2023/04/02 11:11:22;;;;;;;5.93;4.90;;;7.90;99.90;;;;;;5045266;28;20238;-32
2023/04/02 11:13:57;;;;;;;6.77;4.50;;;7.80;99.90;;;;;;5045960;28;20250;-33
2023/04/02 11:16:27;;;;;;;9.03;4.70;;;7.80;99.90;;;;;;5046205;28;20219;-33
2023/04/02 11:19:15;;;;;;;9.20;5.40;;;7.80;99.90;;;;;;5045507;28;20212;-33
2023/04/02 11:22:01;;;;;;;6.93;4.57;;;7.80;99.90;;;;;;5045404;28;20204;-32
2023/04/02 11:24:58;;;;;;;7.67;4.97;;;7.80;99.90;;;;;;5047612;28;20216;-32
2023/04/02 11:27:35;;;;;;;6.47;4.50;;;7.80;99.90;;;;;;5046471;28;20701;-33
2023/04/02 11:30:15;;;;;;;9.80;4.83;;;7.80;99.90;;;;;;5047126;28;20200;-34
2023/04/02 11:32:46;;;;;;;8.70;4.33;;;7.70;99.90;;;;;;5047173;28;20327;-33
2023/04/02 11:35:42;;;;;;;9.47;4.70;;;7.80;99.90;;;;;;5049159;28;20208;-33
2023/04/02 11:38:10;;;;;;;8.37;3.93;;;7.80;99.90;;;;;;5048241;28;20632;-33
2023/04/02 11:40:40;;;;;;;8.73;4.70;;;7.80;99.90;;;;;;5047640;28;20564;-32
2023/04/02 11:43:50;;;;;;;6.90;4.03;;;7.90;99.90;;;;;;5048992;28;20219;-33
2023/04/02 11:46:17;;;;;;;8.33;4.63;;;7.90;99.90;;;;;;5045784;28;20259;-33
2023/04/02 11:48:47;;;;;;;9.43;4.03;;;7.90;99.90;;;;;;5044329;28;20674;-33
2023/04/02 11:51:23;;;;;;;8.87;4.83;;;8.00;99.90;;;;;;5048624;28;20205;-32
2023/04/02 11:53:53;;;;;;;9.40;4.40;;;8.00;99.90;;;;;;5048581;28;20230;-33
2023/04/02 11:56:33;;;;;;;7.60;4.27;;;8.00;99.90;;;;;;5048289;28;20787;-33
2023/04/02 11:59:43;;;;;;;8.07;4.60;;;7.90;99.90;;;;;;5048652;28;20198;-33
2023/04/02 12:02:16;;;;;;;6.87;4.70;;;8.00;99.90;;;;;;5046142;28;20919;-33
2023/04/02 12:04:46;;;;;;;7.60;4.20;;;8.00;99.90;;;;;;5048306;28;20231;-33
2023/04/02 12:07:25;;;;;;;7.10;4.40;;;8.00;99.90;;;;;;5048516;28;20270;-33
2023/04/02 12:09:58;;;;;;;4.70;3.77;;;7.90;99.90;;;;;;5048676;28;20581;-33
2023/04/02 12:12:38;;;;;;;6.83;4.00;;;8.00;99.90;;;;;;5046702;28;20234;-33
2023/04/02 12:15:26;;;;;;;6.53;3.83;;;8.10;99.90;;;;;;5048195;28;20455;-32
2023/04/02 12:18:11;;;;;;;7.07;4.10;;;8.10;99.90;;;;;;5048546;28;20683;-33
2023/04/02 12:20:46;;;;;;;6.10;3.93;;;8.20;99.90;;;;;;5046846;28;20207;-33
2023/04/02 12:23:25;;;;;;;5.87;4.27;;;8.20;99.90;;;;;;5048143;28;20242;-32
2023/04/02 12:26:05;;;;;;;5.63;3.77;;;8.30;99.90;;;;;;5046530;28;20314;-32
2023/04/02 12:28:36;;;;;;;6.23;4.20;;;8.30;99.90;;;;;;5048159;28;20721;-32
2023/04/02 12:31:07;;;;;;;5.20;3.60;;;8.30;99.90;;;;;;5047811;28;20196;-33
2023/04/02 12:33:39;;;;;;;4.83;3.80;;;8.30;99.90;;;;;;5047918;28;20653;-33
2023/04/02 12:36:15;;;;;;;6.00;3.73;;;8.20;99.90;;;;;;5047027;28;20239;-33
2023/04/02 12:38:53;;;;;;;5.77;3.90;;;8.20;99.90;;;;;;5047858;28;20250;-32
2023/04/02 12:41:29;;;;;;;7.27;3.80;;;8.20;99.90;;;;;;5048204;28;20254;-33
2023/04/02 12:44:18;;;;;;;6.53;3.43;;;8.20;99.90;;;;;;5047731;28;20201;-33
2023/04/02 12:46:46;;;;;;;6.00;3.10;;;8.30;99.90;;;;;;5029950;28;20255;-33
2023/04/02 12:49:35;;;;;;;4.63;3.00;;;8.30;99.90;;;;;;5046041;28;20201;-33
2023/04/02 12:52:10;;;;;;;4.57;3.07;;;8.30;99.90;;;;;;5045883;28;20192;-33
2023/04/02 12:54:55;;;;;;;8.50;3.80;;;8.40;99.90;;;;;;5045800;28;20299;-33
2023/04/02 12:57:28;;;;;;;4.50;3.00;;;8.50;99.90;;;;;;5046154;28;20279;-34
2023/04/02 12:59:56;;;;;;;4.73;3.13;;;8.50;99.90;;;;;;5047510;28;20291;-33
2023/04/02 13:02:29;;;;;;;6.53;3.60;;;8.50;99.90;;;;;;5047316;28;20295;-33
2023/04/02 13:05:02;;;;;;;5.00;2.90;;;8.40;99.90;;;;;;5047052;28;20208;-33
2023/04/02 13:07:33;;;;;;;7.63;3.50;;;8.40;99.90;;;;;;5046159;28;20203;-33
2023/04/02 13:10:26;;;;;;;5.37;3.50;;;8.40;99.90;;;;;;5029755;28;20206;-33
2023/04/02 13:12:59;;;;;;;4.83;3.33;;;8.40;99.90;;;;;;5047198;28;20216;-33
2023/04/02 13:15:33;;;;;;;5.13;3.60;;;8.50;99.90;;;;;;5045323;28;20207;-33
2023/04/02 13:18:05;;;;;;;4.97;3.70;;;8.60;99.90;;;;;;5045607;28;20595;-33
2023/04/02 13:20:36;;;;;;;3.70;3.23;;;8.50;99.90;;;;;;5047314;28;20442;-33
2023/04/02 13:23:28;;;;;;;6.77;3.40;;;8.60;99.90;;;;;;5046838;28;20220;-33
2023/04/02 13:26:01;;;;;;;6.73;3.43;;;8.60;99.90;;;;;;5046570;28;20311;-33
2023/04/02 13:28:29;;;;;;;7.27;3.30;;;8.60;99.90;;;;;;5045473;28;20197;-33
2023/04/02 13:30:56;;;;;;;4.70;3.10;;;8.60;99.90;;;;;;5045366;28;20845;-33
2023/04/02 13:33:25;;;;;;;5.47;3.80;;;8.60;99.90;;;;;;5045007;28;20196;-33
2023/04/02 13:36:01;;;;;;;6.43;3.33;;;8.70;99.90;;;;;;5044908;28;20315;-33